Spirit — WDC2731 — position and weather

sailwx.info

Track history (hours):
 
Tides and Currents Weather Stations Pressure Air Temp Water Temp Dewpoint Dewpoint Depression Visibility Wind Speed Wind Dir Waves Ship Positions

Spirit

Owner: Kirby Inland Marine, LP, Houston, TX. More information available from US FCC via Universal Licensing System and Coast Guard Vessel Documentation Center.

Last reported at 2017-Sep-21 14:44 UTC. Time now 2017-Sep-21 16:18 UTC.
Position N 29°46' W 095°05'.

Length 112 m; draft 2.6 m.

Type: . MMSI: 366996910.

Date/timePositionNaut miles runAvg speedWind from/ knotsBaromVisibWave heightAir tempDewpointWater temp
2017-Sep-21 14:44N 29°46' W 095°05'0 0.1
2017-Sep-21 14:30N 29°46' W 095°04'1 0.9
2017-Sep-21 13:41N 29°46' W 095°05'2 6.6
2017-Sep-21 13:23N 29°44' W 095°07'2 6.4
2017-Sep-21 13:00N 29°44' W 095°09'2 4.6
2017-Sep-21 12:30N 29°44' W 095°12'0 0.9
2017-Sep-21 12:00N 29°45' W 095°12'0 0.0
2017-Sep-21 11:26N 29°45' W 095°12'2 0.3
2017-Sep-21 04:25N 29°44' W 095°09'2 5.3
2017-Sep-21 03:59N 29°45' W 095°06'1 0.9
2017-Sep-21 02:23N 29°46' W 095°05'1 2.2
2017-Sep-21 01:46N 29°45' W 095°06'0 0.1
2017-Sep-21 01:11N 29°45' W 095°06'0 0.0
2017-Sep-21 00:26N 29°45' W 095°06'0 0.0
2017-Sep-20 23:55N 29°45' W 095°06'1 0.4
2017-Sep-20 22:09N 29°44' W 095°07'1 4.3
2017-Sep-20 21:48N 29°45' W 095°06'1 1.2
2017-Sep-20 21:21N 29°46' W 095°05'1 0.2
2017-Sep-20 17:38N 29°46' W 095°05'1 4.4
2017-Sep-20 17:29N 29°47' W 095°05'0 0.1
2017-Sep-20 16:32N 29°47' W 095°05'0 1.4
2017-Sep-20 16:29N 29°47' W 095°05'3 4.2
2017-Sep-20 15:53N 29°44' W 095°04'2 4.7
2017-Sep-20 15:27N 29°44' W 095°01'1 3.2
2017-Sep-20 15:00N 29°42' W 095°02'2 0.2
2017-Sep-20 07:40N 29°43' W 095°03'0 0.0
2017-Sep-20 07:18N 29°43' W 095°03'0 0.0
2017-Sep-20 06:51N 29°43' W 095°03'0 0.0
2017-Sep-20 06:25N 29°43' W 095°03'0 0.0
2017-Sep-20 05:59N 29°43' W 095°03'0 0.0
2017-Sep-20 02:52N 29°43' W 095°03'0 0.0
2017-Sep-19 21:33N 29°43' W 095°03'0 3.5
2017-Sep-19 21:29N 29°43' W 095°03'2 3.5
2017-Sep-19 21:00N 29°43' W 095°01'4 6.4
2017-Sep-19 20:25N 29°46' W 095°05'0 0.1
2017-Sep-19 16:48N 29°46' W 095°05'2 0.2
2017-Sep-19 08:43N 29°45' W 095°06'1 5.5
2017-Sep-19 08:30N 29°45' W 095°06'0 0.2
2017-Sep-19 05:52N 29°46' W 095°05'1 0.4
2017-Sep-19 03:13N 29°46' W 095°07'0 0.0
2017-Sep-19 03:00N 29°46' W 095°07'2 0.5
2017-Sep-18 22:38N 29°44' W 095°08'1 5.2
2017-Sep-18 22:30N 29°44' W 095°09'3 2.3
2017-Sep-18 21:24N 29°45' W 095°12'0 0.7
2017-Sep-18 20:54N 29°44' W 095°12'2 5.6
2017-Sep-18 20:27N 29°44' W 095°09'4 1.9
2017-Sep-18 18:21N 29°46' W 095°05'1 0.2
2017-Sep-18 13:58N 29°47' W 095°05'0 0.1
2017-Sep-18 13:14N 29°47' W 095°05'1 2.9
2017-Sep-18 12:50N 29°46' W 095°05'2 4.3
2017-Sep-18 12:25N 29°44' W 095°06'2 0.1
2017-Sep-17 05:54N 29°46' W 095°05'2 1.7
2017-Sep-17 04:42N 29°44' W 095°03'2 4.5
2017-Sep-17 04:12N 29°43' W 095°01'1 4.4
2017-Sep-17 04:00N 29°42' W 095°01'2 4.5
2017-Sep-17 03:30N 29°41' W 094°59'2 4.7
2017-Sep-17 03:00N 29°39' W 094°58'3 5.2
2017-Sep-17 02:30N 29°36' W 094°57'3 5.4
2017-Sep-17 01:52N 29°33' W 094°55'2 5.1
2017-Sep-17 01:30N 29°32' W 094°54'2 0.2
2017-Sep-16 16:01N 29°30' W 094°53'0 7.1
2017-Sep-16 15:58N 29°31' W 094°53'3 6.7
2017-Sep-16 15:30N 29°33' W 094°55'3 6.4
2017-Sep-16 15:00N 29°36' W 094°57'3 6.7
2017-Sep-16 14:31N 29°39' W 094°58'3 6.8
2017-Sep-16 14:01N 29°42' W 095°00'3 5.9
2017-Sep-16 13:30N 29°44' W 095°03'3 0.7
2017-Sep-16 09:23N 29°46' W 095°05'0 0.2
2017-Sep-16 07:10N 29°46' W 095°05'0 0.1
2017-Sep-16 02:15N 29°46' W 095°05'2 0.5
2017-Sep-15 21:05N 29°45' W 095°06'1 6.6
2017-Sep-15 20:55N 29°44' W 095°08'3 6.2
2017-Sep-15 20:29N 29°45' W 095°11'4 0.9
2017-Sep-15 15:51N 29°45' W 095°06'1 0.2
2017-Sep-15 12:00N 29°46' W 095°05'1 0.8
2017-Sep-15 11:18N 29°45' W 095°06'1 0.6
2017-Sep-15 09:32N 29°46' W 095°05'0 2.6
2017-Sep-15 09:29N 29°46' W 095°05'1 0.2
2017-Sep-15 03:51N 29°46' W 095°05'2 5.2
2017-Sep-15 03:30N 29°44' W 095°07'2 4.7
2017-Sep-15 03:00N 29°44' W 095°09'2 0.2
2017-Sep-14 16:42N 29°45' W 095°11'6 0.3
2017-Sep-14 00:00N 29°46' W 095°05'0 0.1
2017-Sep-13 19:00N 29°46' W 095°05'2 0.1
2017-Sep-13 07:19N 29°47' W 095°04'1 0.2
2017-Sep-12 22:57N 29°46' W 095°05'2 0.7
2017-Sep-12 19:43N 29°44' W 095°03'2 6.5
2017-Sep-12 19:28N 29°44' W 095°02'3 5.6
2017-Sep-12 19:00N 29°42' W 094°60'3 6.4
2017-Sep-12 18:30N 29°39' W 094°58'4 7.1
2017-Sep-12 18:00N 29°36' W 094°57'4 7.3
2017-Sep-12 17:30N 29°33' W 094°54'3 5.9
2017-Sep-12 16:58N 29°30' W 094°52'69 4.6
2017-Sep-12 01:55N 30°03' W 093°43'3 7.1
2017-Sep-12 01:30N 30°04' W 093°40'3 6.8
2017-Sep-12 01:00N 30°04' W 093°36'3 5.9
2017-Sep-12 00:30N 30°04' W 093°32'3 5.8
2017-Sep-12 00:00N 30°04' W 093°29'3 5.8
2017-Sep-11 23:30N 30°04' W 093°25'3 5.6
2017-Sep-11 23:00N 30°04' W 093°22'2 4.1
2017-Sep-11 22:30N 30°05' W 093°20'2 4.4
2017-Sep-11 22:00N 30°05' W 093°18'2 3.3
2017-Sep-11 21:30N 30°04' W 093°16'2 3.3
2017-Sep-11 21:00N 30°03' W 093°16'2 4.1
2017-Sep-11 20:30N 30°01' W 093°14'2 3.8
2017-Sep-11 20:00N 29°60' W 093°13'2 3.9
2017-Sep-11 19:30N 29°58' W 093°12'0 0.1
2017-Sep-11 19:00N 29°58' W 093°12'0 0.0
2017-Sep-11 18:30N 29°58' W 093°12'0 0.0
2017-Sep-11 18:00N 29°58' W 093°12'0 0.0
2017-Sep-11 17:30N 29°58' W 093°12'0 0.6
2017-Sep-11 17:00N 29°58' W 093°11'2 4.6
2017-Sep-11 16:30N 29°56' W 093°10'3 5.6
2017-Sep-11 16:00N 29°56' W 093°07'3 5.5
2017-Sep-11 15:29N 29°56' W 093°03'  
Track history (hours):
 
Tides and Currents Weather Stations Pressure Air Temp Water Temp Dewpoint Dewpoint Depression Visibility Wind Speed Wind Dir Waves Ship Positions

Spirit

Owner: Kirby Inland Marine, LP, Houston, TX. More information available from US FCC via Universal Licensing System and Coast Guard Vessel Documentation Center.

Last reported at 2017-Sep-21 14:44 UTC. Time now 2017-Sep-21 16:18 UTC.
Position N 29°46' W 095°05'.

Length 112 m; draft 2.6 m.

Type: . MMSI: 366996910.

Date/timePositionNaut miles runAvg speedWind from/ knotsBaromVisibWave heightAir tempDewpointWater temp
2017-Sep-21 14:44N 29°46' W 095°05'0 0.1
2017-Sep-21 14:30N 29°46' W 095°04'1 0.9
2017-Sep-21 13:41N 29°46' W 095°05'2 6.6
2017-Sep-21 13:23N 29°44' W 095°07'2 6.4
2017-Sep-21 13:00N 29°44' W 095°09'2 4.6
2017-Sep-21 12:30N 29°44' W 095°12'0 0.9
2017-Sep-21 12:00N 29°45' W 095°12'0 0.0
2017-Sep-21 11:26N 29°45' W 095°12'2 0.3
2017-Sep-21 04:25N 29°44' W 095°09'2 5.3
2017-Sep-21 03:59N 29°45' W 095°06'1 0.9
2017-Sep-21 02:23N 29°46' W 095°05'1 2.2
2017-Sep-21 01:46N 29°45' W 095°06'0 0.1
2017-Sep-21 01:11N 29°45' W 095°06'0 0.0
2017-Sep-21 00:26N 29°45' W 095°06'0 0.0
2017-Sep-20 23:55N 29°45' W 095°06'1 0.4
2017-Sep-20 22:09N 29°44' W 095°07'1 4.3
2017-Sep-20 21:48N 29°45' W 095°06'1 1.2
2017-Sep-20 21:21N 29°46' W 095°05'1 0.2
2017-Sep-20 17:38N 29°46' W 095°05'1 4.4
2017-Sep-20 17:29N 29°47' W 095°05'0 0.1
2017-Sep-20 16:32N 29°47' W 095°05'0 1.4
2017-Sep-20 16:29N 29°47' W 095°05'3 4.2
2017-Sep-20 15:53N 29°44' W 095°04'2 4.7
2017-Sep-20 15:27N 29°44' W 095°01'1 3.2
2017-Sep-20 15:00N 29°42' W 095°02'2 0.2
2017-Sep-20 07:40N 29°43' W 095°03'0 0.0
2017-Sep-20 07:18N 29°43' W 095°03'0 0.0
2017-Sep-20 06:51N 29°43' W 095°03'0 0.0
2017-Sep-20 06:25N 29°43' W 095°03'0 0.0
2017-Sep-20 05:59N 29°43' W 095°03'0 0.0
2017-Sep-20 02:52N 29°43' W 095°03'0 0.0
2017-Sep-19 21:33N 29°43' W 095°03'0 3.5
2017-Sep-19 21:29N 29°43' W 095°03'2 3.5
2017-Sep-19 21:00N 29°43' W 095°01'4 6.4
2017-Sep-19 20:25N 29°46' W 095°05'0 0.1
2017-Sep-19 16:48N 29°46' W 095°05'2 0.2
2017-Sep-19 08:43N 29°45' W 095°06'1 5.5
2017-Sep-19 08:30N 29°45' W 095°06'0 0.2
2017-Sep-19 05:52N 29°46' W 095°05'1 0.4
2017-Sep-19 03:13N 29°46' W 095°07'0 0.0
2017-Sep-19 03:00N 29°46' W 095°07'2 0.5
2017-Sep-18 22:38N 29°44' W 095°08'1 5.2
2017-Sep-18 22:30N 29°44' W 095°09'3 2.3
2017-Sep-18 21:24N 29°45' W 095°12'0 0.7
2017-Sep-18 20:54N 29°44' W 095°12'2 5.6
2017-Sep-18 20:27N 29°44' W 095°09'4 1.9
2017-Sep-18 18:21N 29°46' W 095°05'1 0.2
2017-Sep-18 13:58N 29°47' W 095°05'0 0.1
2017-Sep-18 13:14N 29°47' W 095°05'1 2.9
2017-Sep-18 12:50N 29°46' W 095°05'2 4.3
2017-Sep-18 12:25N 29°44' W 095°06'2 0.1
2017-Sep-17 05:54N 29°46' W 095°05'2 1.7
2017-Sep-17 04:42N 29°44' W 095°03'2 4.5
2017-Sep-17 04:12N 29°43' W 095°01'1 4.4
2017-Sep-17 04:00N 29°42' W 095°01'2 4.5
2017-Sep-17 03:30N 29°41' W 094°59'2 4.7
2017-Sep-17 03:00N 29°39' W 094°58'3 5.2
2017-Sep-17 02:30N 29°36' W 094°57'3 5.4
2017-Sep-17 01:52N 29°33' W 094°55'2 5.1
2017-Sep-17 01:30N 29°32' W 094°54'2 0.2
2017-Sep-16 16:01N 29°30' W 094°53'0 7.1
2017-Sep-16 15:58N 29°31' W 094°53'3 6.7
2017-Sep-16 15:30N 29°33' W 094°55'3 6.4
2017-Sep-16 15:00N 29°36' W 094°57'3 6.7
2017-Sep-16 14:31N 29°39' W 094°58'3 6.8
2017-Sep-16 14:01N 29°42' W 095°00'3 5.9
2017-Sep-16 13:30N 29°44' W 095°03'3 0.7
2017-Sep-16 09:23N 29°46' W 095°05'0 0.2
2017-Sep-16 07:10N 29°46' W 095°05'0 0.1
2017-Sep-16 02:15N 29°46' W 095°05'2 0.5
2017-Sep-15 21:05N 29°45' W 095°06'1 6.6
2017-Sep-15 20:55N 29°44' W 095°08'3 6.2
2017-Sep-15 20:29N 29°45' W 095°11'4 0.9
2017-Sep-15 15:51N 29°45' W 095°06'1 0.2
2017-Sep-15 12:00N 29°46' W 095°05'1 0.8
2017-Sep-15 11:18N 29°45' W 095°06'1 0.6
2017-Sep-15 09:32N 29°46' W 095°05'0 2.6
2017-Sep-15 09:29N 29°46' W 095°05'1 0.2
2017-Sep-15 03:51N 29°46' W 095°05'2 5.2
2017-Sep-15 03:30N 29°44' W 095°07'2 4.7
2017-Sep-15 03:00N 29°44' W 095°09'2 0.2
2017-Sep-14 16:42N 29°45' W 095°11'6 0.3
2017-Sep-14 00:00N 29°46' W 095°05'0 0.1
2017-Sep-13 19:00N 29°46' W 095°05'2 0.1
2017-Sep-13 07:19N 29°47' W 095°04'1 0.2
2017-Sep-12 22:57N 29°46' W 095°05'2 0.7
2017-Sep-12 19:43N 29°44' W 095°03'2 6.5
2017-Sep-12 19:28N 29°44' W 095°02'3 5.6
2017-Sep-12 19:00N 29°42' W 094°60'3 6.4
2017-Sep-12 18:30N 29°39' W 094°58'4 7.1
2017-Sep-12 18:00N 29°36' W 094°57'4 7.3
2017-Sep-12 17:30N 29°33' W 094°54'3 5.9
2017-Sep-12 16:58N 29°30' W 094°52'69 4.6
2017-Sep-12 01:55N 30°03' W 093°43'3 7.1
2017-Sep-12 01:30N 30°04' W 093°40'3 6.8
2017-Sep-12 01:00N 30°04' W 093°36'3 5.9
2017-Sep-12 00:30N 30°04' W 093°32'3 5.8
2017-Sep-12 00:00N 30°04' W 093°29'3 5.8
2017-Sep-11 23:30N 30°04' W 093°25'3 5.6
2017-Sep-11 23:00N 30°04' W 093°22'2 4.1
2017-Sep-11 22:30N 30°05' W 093°20'2 4.4
2017-Sep-11 22:00N 30°05' W 093°18'2 3.3
2017-Sep-11 21:30N 30°04' W 093°16'2 3.3
2017-Sep-11 21:00N 30°03' W 093°16'2 4.1
2017-Sep-11 20:30N 30°01' W 093°14'2 3.8
2017-Sep-11 20:00N 29°60' W 093°13'2 3.9
2017-Sep-11 19:30N 29°58' W 093°12'0 0.1
2017-Sep-11 19:00N 29°58' W 093°12'0 0.0
2017-Sep-11 18:30N 29°58' W 093°12'0 0.0
2017-Sep-11 18:00N 29°58' W 093°12'0 0.0
2017-Sep-11 17:30N 29°58' W 093°12'0 0.6
2017-Sep-11 17:00N 29°58' W 093°11'2 4.6
2017-Sep-11 16:30N 29°56' W 093°10'3 5.6
2017-Sep-11 16:00N 29°56' W 093°07'3 5.5
2017-Sep-11 15:29N 29°56' W 093°03'  

Dump ship's entire track history